createdAt,value
2015-12-23T00:00:05.184Z,49.19
2015-12-23T00:00:17.528Z,49.48
2015-12-23T00:00:29.887Z,50.05
2015-12-23T00:00:42.247Z,49.76
2015-12-23T00:00:54.640Z,49.76
2015-12-23T00:01:07.047Z,49.76
2015-12-23T00:01:19.406Z,49.86
2015-12-23T00:01:31.765Z,49.95
2015-12-23T00:01:44.125Z,49.86
2015-12-23T00:01:56.503Z,49.95
2015-12-23T00:02:08.878Z,49.86
2015-12-23T00:02:21.268Z,49.95
2015-12-23T00:02:33.659Z,49.67
2015-12-23T00:02:46.037Z,49.76
2015-12-23T00:02:58.428Z,50.43
2015-12-23T00:03:10.834Z,50.24
2015-12-23T00:03:23.271Z,50.15
2015-12-23T00:03:35.662Z,49.95
2015-12-23T00:03:48.023Z,50.15
2015-12-23T00:04:00.383Z,50.24
2015-12-23T00:04:12.742Z,50.71
2015-12-23T00:04:25.086Z,50.52
2015-12-23T00:04:37.508Z,50.52
2015-12-23T00:04:49.917Z,50.43
2015-12-23T00:05:02.292Z,50.62
2015-12-23T00:05:14.667Z,50.43
2015-12-23T00:05:27.026Z,50.52
2015-12-23T00:05:39.386Z,50.43
2015-12-23T00:05:51.733Z,50.52
2015-12-23T00:06:04.108Z,50.52
2015-12-23T00:06:16.483Z,50.52
2015-12-23T00:06:28.842Z,50.62
2015-12-23T00:06:41.233Z,50.34
2015-12-23T00:06:53.642Z,50.15
2015-12-23T00:07:06.032Z,50.34
2015-12-23T00:07:17.704Z,50.24
2015-12-23T00:07:30.095Z,50.71
2015-12-23T00:07:42.486Z,50.52
2015-12-23T00:07:54.878Z,50.52
2015-12-23T00:08:07.238Z,50.52
2015-12-23T00:08:19.597Z,50.52
2015-12-23T00:08:31.956Z,50.52
2015-12-23T00:08:44.300Z,50.81
2015-12-23T00:08:56.662Z,50.43
2015-12-23T00:09:09.022Z,50.24
2015-12-23T00:09:21.381Z,50.24
2015-12-23T00:09:33.741Z,50.15
2015-12-23T00:09:46.100Z,50.05
2015-12-23T00:09:58.462Z,50.05
2015-12-23T00:10:10.806Z,50.05
2015-12-23T00:10:23.197Z,49.67
2015-12-23T00:10:35.572Z,49.67
2015-12-23T00:10:47.947Z,49.57
2015-12-23T00:11:00.324Z,49.67
2015-12-23T00:11:12.699Z,49.76
2015-12-23T00:11:25.074Z,49.95
2015-12-23T00:11:37.433Z,49.86
2015-12-23T00:11:49.777Z,49.76
2015-12-23T00:12:02.139Z,49.86
2015-12-23T00:12:14.499Z,49.76
2015-12-23T00:12:26.874Z,49.86
2015-12-23T00:12:39.217Z,50.05
2015-12-23T00:12:51.561Z,49.57
2015-12-23T00:13:03.939Z,49.86
2015-12-23T00:13:16.314Z,49.95
2015-12-23T00:13:28.689Z,49.57
2015-12-23T00:13:41.033Z,49.76
2015-12-23T00:13:53.408Z,49.19
2015-12-23T00:14:05.770Z,49.1
2015-12-23T00:14:18.130Z,49.01
2015-12-23T00:14:30.505Z,48.72
2015-12-23T00:14:42.895Z,48.72
2015-12-23T00:14:55.286Z,48.82
2015-12-23T00:15:07.663Z,48.91
2015-12-23T00:15:20.053Z,49.29
2015-12-23T00:15:32.428Z,49.01
2015-12-23T00:15:44.803Z,48.82
2015-12-23T00:15:57.163Z,48.82
2015-12-23T00:16:09.525Z,48.72
2015-12-23T00:16:21.885Z,48.63
2015-12-23T00:16:34.228Z,48.72
2015-12-23T00:16:46.588Z,48.91
2015-12-23T00:16:58.978Z,49.01
2015-12-23T00:17:11.184Z,49.29
2015-12-23T00:17:23.544Z,49.19
2015-12-23T00:17:35.888Z,49.1
2015-12-23T00:17:48.231Z,48.72
2015-12-23T00:18:00.591Z,49.19
2015-12-23T00:18:12.249Z,49.1
2015-12-23T00:18:24.593Z,49.01
2015-12-23T00:18:36.968Z,49.01
2015-12-23T00:18:49.327Z,48.72
2015-12-23T00:19:01.780Z,48.63
2015-12-23T00:19:14.174Z,48.82
2015-12-23T00:19:26.564Z,48.72
2015-12-23T00:19:38.955Z,48.91
2015-12-23T00:19:51.330Z,48.63
2015-12-23T00:20:03.752Z,49.1
2015-12-23T00:20:16.114Z,49.1
2015-12-23T00:20:28.521Z,48.82
2015-12-23T00:20:40.880Z,49.19
2015-12-23T00:20:53.239Z,48.82
2015-12-23T00:21:05.602Z,49.19
2015-12-23T00:21:17.961Z,49.01
2015-12-23T00:21:30.320Z,49.01
2015-12-23T00:21:42.680Z,48.72
2015-12-23T00:21:55.024Z,48.63
2015-12-23T00:22:07.386Z,48.63
2015-12-23T00:22:19.761Z,48.72
2015-12-23T00:22:32.120Z,48.91
2015-12-23T00:22:44.495Z,48.54
2015-12-23T00:22:56.855Z,48.54
2015-12-23T00:23:09.232Z,48.44
2015-12-23T00:23:21.622Z,48.91
2015-12-23T00:23:34.013Z,48.63
2015-12-23T00:23:46.404Z,48.72
2015-12-23T00:23:58.779Z,48.72
2015-12-23T00:24:11.172Z,48.72
2015-12-23T00:24:23.563Z,48.63
2015-12-23T00:24:35.953Z,49.01
2015-12-23T00:24:48.313Z,48.82
2015-12-23T00:25:00.672Z,49.01
2015-12-23T00:25:13.018Z,48.82
2015-12-23T00:25:25.377Z,49.1
2015-12-23T00:25:37.815Z,49.01
2015-12-23T00:25:50.252Z,48.91
2015-12-23T00:26:02.612Z,48.91
2015-12-23T00:26:15.022Z,49.01
2015-12-23T00:26:27.459Z,48.82
2015-12-23T00:26:39.819Z,48.91
2015-12-23T00:26:52.194Z,49.1
2015-12-23T00:27:04.553Z,49.1
2015-12-23T00:27:16.931Z,48.91
2015-12-23T00:27:29.322Z,49.1
2015-12-23T00:27:41.025Z,48.82
2015-12-23T00:27:53.416Z,48.91
2015-12-23T00:28:05.806Z,48.91
2015-12-23T00:28:18.199Z,48.91
2015-12-23T00:28:30.558Z,48.91
2015-12-23T00:28:42.902Z,49.01
2015-12-23T00:28:55.261Z,49.1
2015-12-23T00:29:07.621Z,49.1
2015-12-23T00:29:20.030Z,48.72
2015-12-23T00:29:32.452Z,49.01
2015-12-23T00:29:44.811Z,48.72
2015-12-23T00:29:57.186Z,49.1
2015-12-23T00:30:09.546Z,48.91
2015-12-23T00:30:21.907Z,48.63
2015-12-23T00:30:34.282Z,48.54
2015-12-23T00:30:46.548Z,48.15
2015-12-23T00:30:58.907Z,48.15
2015-12-23T00:31:11.282Z,48.25
2015-12-23T00:31:23.660Z,48.44
2015-12-23T00:31:36.035Z,48.54
2015-12-23T00:31:48.426Z,48.44
2015-12-23T00:32:00.847Z,48.82
2015-12-23T00:32:13.301Z,48.82
2015-12-23T00:32:25.772Z,49.01
2015-12-23T00:32:38.163Z,48.82
2015-12-23T00:32:50.507Z,48.63
2015-12-23T00:33:02.866Z,49.1
2015-12-23T00:33:15.225Z,48.63
2015-12-23T00:33:27.618Z,48.91
2015-12-23T00:33:40.009Z,48.63
2015-12-23T00:33:51.649Z,49.01
2015-12-23T00:34:04.009Z,48.72
2015-12-23T00:34:16.384Z,48.63
2015-12-23T00:34:28.746Z,48.91
2015-12-23T00:34:41.090Z,48.91
2015-12-23T00:34:53.465Z,48.72
2015-12-23T00:35:05.824Z,48.72
2015-12-23T00:35:18.324Z,49.19
2015-12-23T00:35:30.718Z,49.19
2015-12-23T00:35:43.108Z,48.72
2015-12-23T00:35:54.858Z,48.82
2015-12-23T00:36:07.218Z,48.91
2015-12-23T00:36:19.624Z,48.82
2015-12-23T00:36:32.002Z,48.91
2015-12-23T00:36:44.408Z,49.29
2015-12-23T00:36:56.768Z,49.01
2015-12-23T00:37:09.018Z,49.1
2015-12-23T00:37:21.440Z,49.01
2015-12-23T00:37:33.802Z,49.1
2015-12-23T00:37:46.146Z,49.01
2015-12-23T00:37:58.505Z,49.01
2015-12-23T00:38:10.864Z,48.82
2015-12-23T00:38:23.208Z,48.82
2015-12-23T00:38:35.617Z,49.38
2015-12-23T00:38:47.336Z,49.57
2015-12-23T00:38:59.711Z,48.82
2015-12-23T00:39:12.086Z,48.82
2015-12-23T00:39:23.789Z,49.29
2015-12-23T00:39:36.166Z,49.19
2015-12-23T00:39:48.541Z,49.01
2015-12-23T00:40:00.932Z,49.1
2015-12-23T00:40:13.323Z,49.1
2015-12-23T00:40:25.713Z,49.01
2015-12-23T00:40:38.121Z,49.19
2015-12-23T00:40:50.543Z,49.1
2015-12-23T00:41:02.903Z,49.1
2015-12-23T00:41:15.262Z,49.1
2015-12-23T00:41:27.606Z,48.72
2015-12-23T00:41:39.985Z,48.72
2015-12-23T00:41:52.344Z,48.91
2015-12-23T00:42:04.704Z,49.19
2015-12-23T00:42:17.063Z,49.19
2015-12-23T00:42:29.422Z,48.82
2015-12-23T00:42:41.768Z,48.82
2015-12-23T00:42:54.127Z,48.91
2015-12-23T00:43:06.534Z,48.63
2015-12-23T00:43:18.909Z,49.1
2015-12-23T00:43:31.284Z,48.82
2015-12-23T00:43:43.740Z,49.01
2015-12-23T00:43:55.474Z,48.63
2015-12-23T00:44:07.865Z,48.72
2015-12-23T00:44:20.255Z,48.72
2015-12-23T00:44:32.630Z,48.54
2015-12-23T00:44:45.118Z,48.82
2015-12-23T00:44:57.508Z,49.1
2015-12-23T00:45:09.883Z,48.72
2015-12-23T00:45:22.227Z,49.1
2015-12-23T00:45:34.587Z,48.72
2015-12-23T00:45:46.948Z,49.01
2015-12-23T00:45:59.323Z,48.72
2015-12-23T00:46:11.698Z,49.1
2015-12-23T00:46:24.073Z,48.82
2015-12-23T00:46:36.451Z,49.01
2015-12-23T00:46:48.795Z,48.63
2015-12-23T00:47:01.170Z,48.72
2015-12-23T00:47:13.529Z,48.72
2015-12-23T00:47:25.888Z,48.72
2015-12-23T00:47:38.266Z,49.01
2015-12-23T00:47:50.626Z,49.01
2015-12-23T00:48:03.001Z,49.1
2015-12-23T00:48:15.407Z,49.19
2015-12-23T00:48:27.798Z,48.91
2015-12-23T00:48:40.207Z,48.82
2015-12-23T00:48:52.566Z,48.91
2015-12-23T00:49:04.910Z,48.82
2015-12-23T00:49:17.269Z,48.91
2015-12-23T00:49:29.644Z,49.19
2015-12-23T00:49:41.834Z,49.19
2015-12-23T00:49:54.193Z,49.38
2015-12-23T00:50:06.553Z,49.76
2015-12-23T00:50:18.928Z,49.86
2015-12-23T00:50:31.287Z,49.67
2015-12-23T00:50:43.634Z,49.48
2015-12-23T00:50:56.087Z,50.24
2015-12-23T00:51:08.540Z,49.86
2015-12-23T00:51:20.899Z,49.57
2015-12-23T00:51:33.259Z,49.86
2015-12-23T00:51:45.637Z,49.67
2015-12-23T00:51:58.027Z,49.67
2015-12-23T00:52:10.402Z,49.38
2015-12-23T00:52:22.887Z,48.91
2015-12-23T00:52:35.277Z,49.1
2015-12-23T00:52:47.655Z,49.29
2015-12-23T00:53:00.077Z,49.38
2015-12-23T00:53:12.468Z,49.29
2015-12-23T00:53:24.812Z,49.29
2015-12-23T00:53:37.155Z,49.29
2015-12-23T00:53:49.517Z,49.01
2015-12-23T00:54:01.861Z,48.72
2015-12-23T00:54:14.251Z,48.91
2015-12-23T00:54:26.626Z,48.82
2015-12-23T00:54:38.298Z,48.91
2015-12-23T00:54:50.739Z,48.91
2015-12-23T00:55:03.114Z,48.91
2015-12-23T00:55:15.556Z,48.91
2015-12-23T00:55:27.978Z,48.82
2015-12-23T00:55:40.181Z,48.91
2015-12-23T00:55:53.851Z,48.91
2015-12-23T00:56:09.038Z,48.82
2015-12-23T00:56:21.663Z,48.82
2015-12-23T00:56:34.335Z,48.82
2015-12-23T00:56:47.370Z,48.82
2015-12-23T00:56:59.963Z,48.82
2015-12-23T00:57:17.245Z,48.82
2015-12-23T00:57:31.401Z,48.91
2015-12-23T00:57:44.841Z,48.72
2015-12-23T00:57:57.451Z,49.01
2015-12-23T00:58:09.998Z,49.01
2015-12-23T00:58:22.951Z,48.91
2015-12-23T00:58:35.451Z,48.91
2015-12-23T00:58:48.109Z,48.91
2015-12-23T00:59:01.140Z,48.72
2015-12-23T00:59:13.531Z,49.19
2015-12-23T00:59:25.906Z,49.01
2015-12-23T00:59:38.312Z,48.72
2015-12-23T00:59:51.970Z,48.91
2015-12-23T01:00:04.673Z,48.82
2015-12-23T01:00:17.314Z,48.82
2015-12-23T01:00:30.127Z,48.82
2015-12-23T01:00:42.548Z,48.91
2015-12-23T01:00:55.020Z,48.91
2015-12-23T01:01:07.442Z,48.91
2015-12-23T01:01:20.239Z,49.01
2015-12-23T01:01:31.926Z,49.19
2015-12-23T01:01:44.645Z,49.1
2015-12-23T01:01:57.008Z,48.91
2015-12-23T01:02:09.367Z,49.1
2015-12-23T01:02:21.711Z,48.72
2015-12-23T01:02:34.086Z,48.72
2015-12-23T01:02:46.445Z,48.82
2015-12-23T01:02:58.806Z,48.63
2015-12-23T01:03:11.213Z,48.72
2015-12-23T01:03:23.572Z,49.01
2015-12-23T01:03:35.916Z,49.01
2015-12-23T01:03:48.278Z,49.01
2015-12-23T01:03:59.950Z,49.01
2015-12-23T01:04:12.403Z,48.91
2015-12-23T01:04:24.778Z,49.1
2015-12-23T01:04:37.200Z,48.82
2015-12-23T01:04:49.594Z,49.01
2015-12-23T01:05:01.984Z,48.72
2015-12-23T01:05:14.375Z,48.91
2015-12-23T01:05:26.875Z,49.01
2015-12-23T01:05:39.250Z,49.01
2015-12-23T01:05:51.659Z,48.91
2015-12-23T01:06:04.019Z,48.82
2015-12-23T01:06:16.378Z,48.72
2015-12-23T01:06:28.722Z,48.63
2015-12-23T01:06:41.097Z,48.72
2015-12-23T01:06:53.443Z,48.82
2015-12-23T01:07:05.803Z,48.82
2015-12-23T01:07:18.178Z,48.72
2015-12-23T01:07:30.537Z,48.63
2015-12-23T01:07:42.897Z,48.63
2015-12-23T01:07:55.258Z,48.72
2015-12-23T01:08:07.617Z,48.63
2015-12-23T01:08:19.977Z,49.01
2015-12-23T01:08:32.399Z,49.01
2015-12-23T01:08:44.805Z,49.01
2015-12-23T01:08:57.184Z,48.72
2015-12-23T01:09:09.606Z,49.01
2015-12-23T01:09:22.012Z,48.63
2015-12-23T01:09:34.418Z,48.91
2015-12-23T01:09:46.871Z,48.72
2015-12-23T01:09:59.265Z,49.1
2015-12-23T01:10:11.624Z,49.1
2015-12-23T01:10:23.984Z,49.1
2015-12-23T01:10:36.359Z,49.1
2015-12-23T01:10:48.718Z,48.72
2015-12-23T01:11:01.079Z,48.72
2015-12-23T01:11:13.454Z,49.1
2015-12-23T01:11:25.829Z,49.01
2015-12-23T01:11:38.189Z,49.1
2015-12-23T01:11:50.548Z,49.29
2015-12-23T01:12:02.895Z,48.82
2015-12-23T01:12:15.239Z,48.82
2015-12-23T01:12:27.614Z,48.82
2015-12-23T01:12:39.989Z,49.1
2015-12-23T01:12:52.348Z,49.38
2015-12-23T01:13:04.726Z,49.1
2015-12-23T01:13:17.117Z,49.19
2015-12-23T01:13:29.507Z,48.72
2015-12-23T01:13:41.914Z,48.72
2015-12-23T01:13:54.304Z,48.72
2015-12-23T01:14:06.698Z,48.82
2015-12-23T01:14:19.151Z,48.82
2015-12-23T01:14:31.557Z,48.82
2015-12-23T01:14:43.182Z,48.82
2015-12-23T01:14:55.542Z,48.82
2015-12-23T01:15:07.965Z,48.91
2015-12-23T01:15:20.387Z,49.01
2015-12-23T01:15:32.747Z,49.01
2015-12-23T01:15:44.387Z,49.01
2015-12-23T01:15:56.747Z,48.82
2015-12-23T01:16:08.937Z,48.72
2015-12-23T01:16:21.312Z,48.82
2015-12-23T01:16:33.703Z,49.48
2015-12-23T01:16:46.062Z,49.1
2015-12-23T01:16:58.437Z,49.29
2015-12-23T01:17:10.814Z,49.19
2015-12-23T01:17:23.189Z,49.29
2015-12-23T01:17:35.580Z,49.19
2015-12-23T01:17:47.955Z,49.19
2015-12-23T01:18:00.345Z,49.19
2015-12-23T01:18:12.739Z,49.1
2015-12-23T01:18:24.989Z,49.19
2015-12-23T01:18:37.380Z,49.1
2015-12-23T01:18:49.770Z,48.82
2015-12-23T01:19:02.130Z,48.91
2015-12-23T01:19:14.555Z,49.1
2015-12-23T01:19:26.914Z,49.1
2015-12-23T01:19:39.289Z,48.91
2015-12-23T01:19:51.633Z,49.01
2015-12-23T01:20:03.992Z,48.91
2015-12-23T01:20:16.369Z,49.1
2015-12-23T01:20:28.713Z,49.1
2015-12-23T01:20:41.072Z,49.1
2015-12-23T01:20:53.447Z,48.91
2015-12-23T01:21:05.666Z,48.91
2015-12-23T01:21:18.044Z,48.91
2015-12-23T01:21:30.403Z,48.91
2015-12-23T01:21:42.794Z,49.01
2015-12-23T01:22:28.267Z,49.01
2015-12-23T01:22:40.548Z,49.01
2015-12-23T01:22:52.939Z,49.19
2015-12-23T01:23:05.298Z,49.1
2015-12-23T01:23:17.659Z,48.72
2015-12-23T01:23:30.003Z,49.1
2015-12-23T01:23:42.362Z,48.72
2015-12-23T01:23:54.722Z,48.91
2015-12-23T01:24:07.097Z,48.82
2015-12-23T01:24:19.490Z,48.72
2015-12-23T01:24:31.850Z,49.19
2015-12-23T01:24:44.209Z,49.1
2015-12-23T01:24:56.584Z,49.1
2015-12-23T01:25:08.959Z,48.91
2015-12-23T01:25:21.414Z,48.79
2015-12-23T01:25:33.633Z,49.19
2015-12-23T01:25:46.039Z,49.1
2015-12-23T01:25:58.446Z,49.19
2015-12-23T01:26:10.789Z,48.82
2015-12-23T01:26:23.153Z,49.01
2015-12-23T01:26:35.606Z,48.91
2015-12-23T01:26:47.965Z,48.91
2015-12-23T01:27:00.325Z,49.01
2015-12-23T01:27:12.684Z,49.01
2015-12-23T01:27:25.045Z,48.91
2015-12-23T01:27:37.405Z,48.91
2015-12-23T01:27:49.748Z,48.82
2015-12-23T01:28:02.155Z,49.01
2015-12-23T01:28:14.530Z,49.1
2015-12-23T01:28:26.908Z,48.82
2015-12-23T01:28:39.267Z,49.1
2015-12-23T01:28:51.642Z,49.01
2015-12-23T01:29:04.017Z,49.01
2015-12-23T01:29:16.408Z,48.82
2015-12-23T01:29:28.941Z,48.98
2015-12-23T01:29:41.347Z,48.54
2015-12-23T01:29:53.707Z,48.82
2015-12-23T01:30:06.066Z,49.01
2015-12-23T01:30:18.410Z,48.72
2015-12-23T01:30:30.756Z,48.91
2015-12-23T01:30:43.085Z,48.54
2015-12-23T01:30:55.428Z,48.72
2015-12-23T01:31:07.772Z,48.89
2015-12-23T01:31:20.147Z,48.91
2015-12-23T01:31:32.509Z,48.63
2015-12-23T01:31:44.166Z,48.79
2015-12-23T01:31:56.541Z,48.82
2015-12-23T01:32:08.931Z,48.82
2015-12-23T01:32:21.322Z,48.22
2015-12-23T01:32:33.715Z,48.15
2015-12-23T01:32:45.918Z,47.96
2015-12-23T01:32:58.277Z,48.15
2015-12-23T01:33:10.636Z,47.68
2015-12-23T01:33:22.980Z,47.87
2015-12-23T01:33:35.327Z,47.49
2015-12-23T01:33:47.686Z,47.87
2015-12-23T01:34:00.046Z,47.58
2015-12-23T01:34:12.405Z,47.39
2015-12-23T01:34:24.764Z,47.49
2015-12-23T01:34:37.127Z,47.11
2015-12-23T01:34:49.471Z,47.39
2015-12-23T01:35:01.830Z,47.2
2015-12-23T01:35:14.205Z,46.73
2015-12-23T01:35:26.580Z,46.64
2015-12-23T01:35:38.958Z,46.73
2015-12-23T01:35:51.333Z,46.83
2015-12-23T01:36:03.724Z,46.64
2015-12-23T01:36:16.114Z,47.11
2015-12-23T01:36:28.505Z,47.3
2015-12-23T01:36:40.852Z,47.39
2015-12-23T01:36:53.211Z,47.11
2015-12-23T01:37:05.555Z,47.3
2015-12-23T01:37:17.930Z,47.3
2015-12-23T01:37:30.305Z,47.49
2015-12-23T01:37:42.744Z,47.49
2015-12-23T01:37:55.119Z,47.58
2015-12-23T01:38:07.479Z,47.3
2015-12-23T01:38:19.838Z,47.3
2015-12-23T01:38:32.197Z,47.58
2015-12-23T01:38:44.561Z,47.58
2015-12-23T01:38:56.936Z,47.49
2015-12-23T01:39:09.311Z,47.39
2015-12-23T01:39:21.701Z,47.49
2015-12-23T01:39:34.076Z,47.02
2015-12-23T01:39:46.453Z,47.11
2015-12-23T01:39:58.860Z,46.73
2015-12-23T01:40:11.250Z,46.64
2015-12-23T01:40:23.641Z,46.64
2015-12-23T01:40:36.031Z,46.83
2015-12-23T01:40:48.299Z,46.73
2015-12-23T01:41:00.658Z,46.73
2015-12-23T01:41:13.002Z,46.64
2015-12-23T01:41:25.471Z,46.64
2015-12-23T01:41:37.112Z,46.64
2015-12-23T01:41:48.756Z,47.2
2015-12-23T01:42:01.116Z,47.3
2015-12-23T01:42:13.475Z,47.02
2015-12-23T01:42:25.850Z,47.2
2015-12-23T01:42:38.209Z,47.2
2015-12-23T01:42:50.571Z,47.11
2015-12-23T01:43:02.930Z,47.11
2015-12-23T01:43:15.305Z,47.11
2015-12-23T01:43:27.711Z,47.02
2015-12-23T01:43:40.183Z,47.2
2015-12-23T01:43:52.558Z,46.73
2015-12-23T01:44:04.949Z,46.92
2015-12-23T01:44:17.324Z,47.02
2015-12-23T01:44:29.714Z,47.2
2015-12-23T01:44:42.124Z,47.11
2015-12-23T01:44:54.514Z,47.11
2015-12-23T01:45:06.952Z,47.11
2015-12-23T01:45:19.295Z,47.3
2015-12-23T01:45:31.655Z,47.2
2015-12-23T01:45:44.001Z,47.11
2015-12-23T01:45:56.360Z,47.02
2015-12-23T01:46:08.719Z,46.73
2015-12-23T01:46:21.063Z,46.92
2015-12-23T01:46:33.422Z,47.3
2015-12-23T01:46:45.785Z,46.92
2015-12-23T01:46:58.144Z,47.39
2015-12-23T01:47:10.488Z,47.2
2015-12-23T01:47:22.847Z,46.54
2015-12-23T01:47:35.238Z,46.54
2015-12-23T01:47:47.632Z,46.73
2015-12-23T01:48:00.085Z,46.64
2015-12-23T01:48:12.460Z,46.83
2015-12-23T01:48:24.850Z,46.73
2015-12-23T01:48:37.241Z,46.54
2015-12-23T01:48:49.634Z,46.26
2015-12-23T01:49:02.040Z,45.97
2015-12-23T01:49:14.430Z,45.69
2015-12-23T01:49:26.790Z,45.69
2015-12-23T01:49:39.134Z,45.59
2015-12-23T01:49:51.496Z,45.59
2015-12-23T01:50:03.871Z,45.5
2015-12-23T01:50:16.324Z,45.4
2015-12-23T01:50:28.715Z,45.59
2015-12-23T01:50:41.074Z,45.88
2015-12-23T01:50:53.436Z,46.16
2015-12-23T01:51:05.796Z,45.97
2015-12-23T01:51:18.155Z,46.16
2015-12-23T01:51:30.515Z,45.88
2015-12-23T01:51:42.874Z,45.78
2015-12-23T01:51:55.236Z,45.69
2015-12-23T01:52:07.611Z,45.5
2015-12-23T01:52:20.018Z,45.59
2015-12-23T01:52:32.377Z,45.31
2015-12-23T01:52:44.799Z,45.31
2015-12-23T01:52:57.176Z,45.4
2015-12-23T01:53:09.566Z,45.4
2015-12-23T01:53:21.957Z,45.4
2015-12-23T01:53:34.332Z,45.69
2015-12-23T01:53:46.691Z,45.88
2015-12-23T01:53:59.054Z,45.69
2015-12-23T01:54:11.413Z,45.88
2015-12-23T01:54:23.773Z,46.16
2015-12-23T01:54:36.132Z,45.69
2015-12-23T01:54:48.507Z,45.59
2015-12-23T01:55:00.885Z,45.69
2015-12-23T01:55:13.244Z,45.69
2015-12-23T01:55:25.619Z,45.59
2015-12-23T01:55:37.963Z,46.16
2015-12-23T01:55:50.338Z,45.97
2015-12-23T01:56:02.715Z,45.88
2015-12-23T01:56:14.918Z,46.26
2015-12-23T01:56:27.309Z,45.88
2015-12-23T01:56:39.684Z,46.16
2015-12-23T01:56:52.090Z,46.16
2015-12-23T01:57:04.499Z,46.07
2015-12-23T01:57:16.749Z,46.16
2015-12-23T01:57:29.124Z,45.59
2015-12-23T01:57:41.499Z,45.78
2015-12-23T01:57:53.874Z,45.88
2015-12-23T01:58:06.080Z,46.07
2015-12-23T01:58:18.440Z,46.16
2015-12-23T01:58:30.799Z,46.16
2015-12-23T01:58:43.159Z,45.69
2015-12-23T01:58:55.534Z,45.78
2015-12-23T01:59:07.880Z,45.69
2015-12-23T01:59:19.537Z,45.59
2015-12-23T01:59:31.912Z,45.59
2015-12-23T01:59:44.271Z,45.4
2015-12-23T01:59:56.646Z,45.4
2015-12-23T02:00:09.007Z,45.4
2015-12-23T02:00:21.382Z,45.31
2015-12-23T02:00:33.773Z,45.59
2015-12-23T02:00:46.164Z,45.31
2015-12-23T02:00:58.601Z,45.31
2015-12-23T02:01:10.979Z,45.12
2015-12-23T02:01:23.338Z,45.4
2015-12-23T02:01:35.698Z,45.03
2015-12-23T02:01:48.057Z,45.21
2015-12-23T02:02:00.420Z,45.03
2015-12-23T02:02:12.779Z,45.03
2015-12-23T02:02:25.123Z,45.03
2015-12-23T02:02:37.326Z,44.93
2015-12-23T02:02:49.685Z,45.03
2015-12-23T02:03:02.048Z,45.03
2015-12-23T02:03:14.391Z,44.93
2015-12-23T02:03:26.751Z,45.03
2015-12-23T02:03:39.110Z,45.31
2015-12-23T02:03:51.469Z,45.03
2015-12-23T02:04:03.846Z,44.93
2015-12-23T02:04:16.237Z,44.93
2015-12-23T02:04:28.690Z,45.31
2015-12-23T02:04:41.081Z,45.31
2015-12-23T02:04:53.471Z,45.31
2015-12-23T02:05:05.866Z,45.21
2015-12-23T02:05:18.257Z,45.12
2015-12-23T02:05:30.694Z,45.03
2015-12-23T02:05:43.054Z,44.93
2015-12-23T02:05:54.694Z,45.03
2015-12-23T02:06:07.056Z,45.03
2015-12-23T02:06:19.415Z,45.12
2015-12-23T02:06:31.790Z,45.12
2015-12-23T02:06:44.134Z,45.12
2015-12-23T02:06:56.493Z,45.12
2015-12-23T02:07:08.855Z,44.93
2015-12-23T02:07:21.215Z,45.12
2015-12-23T02:07:33.574Z,45.12
2015-12-23T02:07:45.934Z,44.74
2015-12-23T02:07:58.309Z,44.74
2015-12-23T02:08:10.687Z,44.74
2015-12-23T02:08:22.374Z,45.03
2015-12-23T02:08:34.749Z,44.55
2015-12-23T02:08:47.140Z,44.27
2015-12-23T02:08:59.546Z,44.27
2015-12-23T02:09:11.954Z,44.36
2015-12-23T02:09:24.360Z,44.27
2015-12-23T02:09:36.735Z,44.46
2015-12-23T02:09:49.126Z,44.36
2015-12-23T02:10:01.485Z,44.46
2015-12-23T02:10:13.832Z,44.36
2015-12-23T02:10:26.207Z,44.46
2015-12-23T02:10:38.598Z,44.36
2015-12-23T02:10:50.957Z,44.27
2015-12-23T02:11:03.317Z,44.65
2015-12-23T02:11:15.679Z,44.84
2015-12-23T02:11:27.179Z,44.84
2015-12-23T02:11:39.523Z,44.93
2015-12-23T02:11:51.882Z,45.03
2015-12-23T02:12:04.085Z,44.93
2015-12-23T02:12:16.462Z,44.74
2015-12-23T02:12:28.837Z,44.36
2015-12-23T02:12:41.212Z,44.55
2015-12-23T02:12:53.603Z,44.46
2015-12-23T02:13:05.993Z,44.46
2015-12-23T02:13:18.388Z,44.55
2015-12-23T02:13:30.779Z,44.65
2015-12-23T02:13:43.169Z,44.65
2015-12-23T02:13:55.638Z,44.74
2015-12-23T02:14:08.076Z,44.93
2015-12-23T02:14:20.438Z,44.74
2015-12-23T02:14:32.797Z,44.93
2015-12-23T02:14:45.141Z,44.74
2015-12-23T02:14:57.500Z,44.84
2015-12-23T02:15:09.860Z,44.74
2015-12-23T02:15:22.221Z,44.84
2015-12-23T02:15:34.581Z,44.65
2015-12-23T02:15:46.924Z,44.17
2015-12-23T02:15:59.299Z,44.65
2015-12-23T02:16:11.643Z,44.55
2015-12-23T02:16:24.005Z,45.03
2015-12-23T02:16:36.380Z,45.03
2015-12-23T02:16:48.740Z,45.03
2015-12-23T02:17:01.099Z,44.84
2015-12-23T02:17:13.490Z,44.74
2015-12-23T02:17:25.882Z,44.84
2015-12-23T02:17:38.257Z,44.74
2015-12-23T02:17:50.632Z,44.65
2015-12-23T02:18:03.039Z,44.93
2015-12-23T02:18:15.429Z,44.72
2015-12-23T02:18:27.854Z,44.72
2015-12-23T02:18:40.198Z,44.72
2015-12-23T02:18:52.620Z,44.81
2015-12-23T02:19:05.057Z,44.91
2015-12-23T02:19:16.698Z,44.81
2015-12-23T02:19:29.060Z,44.91
2015-12-23T02:19:41.404Z,44.72
2015-12-23T02:19:53.763Z,44.91
2015-12-23T02:20:06.138Z,44.84
2015-12-23T02:20:18.576Z,44.81
2015-12-23T02:20:30.938Z,45
2015-12-23T02:20:43.298Z,44.74
2015-12-23T02:20:55.673Z,45
2015-12-23T02:21:08.141Z,44.91
2015-12-23T02:21:20.516Z,44.91
2015-12-23T02:21:32.878Z,44.91
2015-12-23T02:21:45.253Z,44.81
2015-12-23T02:21:57.643Z,45.21
2015-12-23T02:22:10.050Z,44.81
2015-12-23T02:22:22.518Z,44.91
2015-12-23T02:22:35.006Z,44.72
2015-12-23T02:22:47.365Z,44.91
2015-12-23T02:22:59.771Z,44.81
2015-12-23T02:23:12.193Z,44.72
2015-12-23T02:23:24.553Z,44.72
2015-12-23T02:23:36.915Z,44.81
2015-12-23T02:23:49.274Z,44.81
2015-12-23T02:24:01.634Z,44.81
2015-12-23T02:24:13.993Z,45.29
2015-12-23T02:24:26.431Z,45.1
2015-12-23T02:24:38.855Z,44.91
2015-12-23T02:24:51.198Z,44.91
2015-12-23T02:25:03.573Z,45
2015-12-23T02:25:15.948Z,45.29
2015-12-23T02:25:28.323Z,45.29
2015-12-23T02:25:40.702Z,45
2015-12-23T02:25:53.093Z,45.29
2015-12-23T02:26:05.546Z,44.91
2015-12-23T02:26:18.046Z,44.91
2015-12-23T02:26:30.421Z,45.29
2015-12-23T02:26:42.782Z,45.29
2015-12-23T02:26:55.204Z,45.1
2015-12-23T02:27:07.548Z,44.81
2015-12-23T02:27:19.939Z,44.91
2015-12-23T02:27:32.361Z,45
2015-12-23T02:27:44.754Z,44.91
2015-12-23T02:27:57.114Z,45.1
2015-12-23T02:28:09.473Z,44.91
2015-12-23T02:28:21.910Z,45.19
2015-12-23T02:28:34.348Z,45.1
2015-12-23T02:28:46.709Z,45.29
2015-12-23T02:28:59.084Z,45.38
2015-12-23T02:29:11.444Z,45.67
2015-12-23T02:29:23.819Z,45.95
2015-12-23T02:29:36.194Z,45.95
2015-12-23T02:29:48.681Z,46.23
2015-12-23T02:30:01.119Z,45.76
2015-12-23T02:30:13.509Z,45.57
2015-12-23T02:30:25.900Z,45.76
2015-12-23T02:30:38.290Z,45
2015-12-23T02:30:50.654Z,45.19
2015-12-23T02:31:03.013Z,44.91
2015-12-23T02:31:15.419Z,45.1
2015-12-23T02:31:27.810Z,45.1
2015-12-23T02:31:40.169Z,45.1
2015-12-23T02:31:52.515Z,45
2015-12-23T02:32:04.875Z,45.1
2015-12-23T02:32:17.234Z,45
2015-12-23T02:32:29.593Z,44.91
2015-12-23T02:32:42.000Z,45.1
2015-12-23T02:32:54.378Z,44.91
2015-12-23T02:33:06.737Z,45.1
2015-12-23T02:33:19.128Z,44.91
2015-12-23T02:33:31.487Z,44.81
2015-12-23T02:33:43.865Z,45.29
2015-12-23T02:33:56.256Z,45.29
2015-12-23T02:34:08.646Z,45.19
2015-12-23T02:34:21.052Z,45.38
2015-12-23T02:34:33.490Z,45.1
2015-12-23T02:34:45.945Z,44.91
2015-12-23T02:34:58.304Z,45.19
2015-12-23T02:35:10.633Z,44.81
2015-12-23T02:35:22.976Z,45
2015-12-23T02:35:35.320Z,45.19
2015-12-23T02:35:47.667Z,44.91
2015-12-23T02:36:00.151Z,44.91
2015-12-23T02:36:12.557Z,44.72
2015-12-23T02:36:24.901Z,44.81
2015-12-23T02:36:37.261Z,44.81
2015-12-23T02:36:49.623Z,44.81
2015-12-23T02:37:02.076Z,44.81
2015-12-23T02:37:14.514Z,44.81
2015-12-23T02:37:26.889Z,44.62
2015-12-23T02:37:39.264Z,44.62
2015-12-23T02:37:51.626Z,44.62
2015-12-23T02:38:04.017Z,44.53
2015-12-23T02:38:16.438Z,44.34
2015-12-23T02:38:28.907Z,44.53
2015-12-23T02:38:41.157Z,44.62
2015-12-23T02:38:53.565Z,44.72
2015-12-23T02:39:05.925Z,44.34
2015-12-23T02:39:18.362Z,44.62
2015-12-23T02:39:30.753Z,44.72
2015-12-23T02:39:43.097Z,44.62
2015-12-23T02:39:55.459Z,44.53
2015-12-23T02:40:07.803Z,44.46
2015-12-23T02:40:20.162Z,44.53
2015-12-23T02:40:32.428Z,44.53
2015-12-23T02:40:44.850Z,44.43